Time;durP1;ratioP1;P1;durP2;ratioP2;P2;SDS_P1;SDS_P2;PMS_P1;PMS_P2;Temp;Humidity;BMP_temperature;BMP_pressure;BME280_temperature;BME280_humidity;BME280_pressure;Samples;Min_cycle;Max_cycle;Signal;HPM_P1;HPM_P2
2023/01/17 00:00:35;;;;;;;11.57;10.44;;;;;;;3.64;68.47;101262.33;490702;107;922603;-69
2023/01/17 00:01:38;;;;;;;11.24;10.08;;;;;;;3.65;68.31;101256.79;492514;107;922835;-68
2023/01/17 00:02:42;;;;;;;10.79;9.79;;;;;;;3.66;68.22;101254.94;492623;106;922953;-68
2023/01/17 00:10:35;;;;;;;11.65;10.07;;;;;;;3.70;68.12;101249.09;492679;105;922489;-69
2023/01/17 00:11:39;;;;;;;12.34;10.93;;;;;;;3.71;68.28;101244.55;492294;107;922447;-69
2023/01/17 00:12:47;;;;;;;12.18;10.56;;;;;;;3.72;68.24;101236.30;492550;107;922508;-69
2023/01/17 00:13:51;;;;;;;11.47;10.47;;;;;;;3.72;68.28;101241.70;490661;105;922679;-69
2023/01/17 00:14:55;;;;;;;11.61;10.68;;;;;;;3.72;68.12;101236.30;478122;109;922552;-69
2023/01/17 00:15:58;;;;;;;13.40;11.09;;;;;;;3.73;68.04;101234.45;476020;110;923263;-69
2023/01/17 00:17:01;;;;;;;11.71;10.56;;;;;;;3.74;67.97;101225.38;492544;107;922442;-69
2023/01/17 00:18:04;;;;;;;12.03;10.88;;;;;;;3.73;67.97;101226.37;492146;105;922526;-70
2023/01/17 01:34:23;;;;;;;8.73;7.90;;;;;;;2.19;68.91;101188.68;486764;109;922981;-68
2023/01/17 01:35:26;;;;;;;9.00;8.21;;;;;;;2.18;69.02;101187.83;491807;107;922989;-68
2023/01/17 01:36:29;;;;;;;8.94;8.15;;;;;;;2.19;69.16;101191.38;490331;107;922978;-68
2023/01/17 01:37:32;;;;;;;9.58;8.68;;;;;;;2.20;69.13;101190.38;493151;107;922401;-68
2023/01/17 01:38:36;;;;;;;9.25;8.45;;;;;;;2.20;69.12;101191.23;490768;107;922898;-68
2023/01/17 01:39:39;;;;;;;9.10;8.27;;;;;;;2.22;69.16;101191.91;492616;107;922459;-67
2023/01/17 01:40:45;;;;;;;10.71;8.74;;;;;;;2.23;69.08;101195.45;492514;107;930575;-67
2023/01/17 01:41:48;;;;;;;9.95;9.05;;;;;;;2.24;69.08;101194.47;492334;107;922863;-67
2023/01/17 01:42:54;;;;;;;9.87;9.02;;;;;;;2.24;69.12;101197.16;492629;105;922945;-67
2023/01/17 01:43:57;;;;;;;9.82;8.79;;;;;;;2.23;69.05;101188.23;492610;105;922885;-68
2023/01/17 01:45:02;;;;;;;10.22;9.33;;;;;;;2.24;68.93;101195.32;489511;105;922554;-68
2023/01/17 01:46:07;;;;;;;10.71;9.13;;;;;;;2.24;68.91;101195.32;492356;107;922790;-68
2023/01/17 01:47:16;;;;;;;9.67;8.86;;;;;;;2.24;68.87;101194.47;486055;107;922610;-68
2023/01/17 01:48:29;;;;;;;9.93;9.05;;;;;;;2.24;68.78;101194.47;499652;105;922551;-68
2023/01/17 01:49:32;;;;;;;9.14;8.36;;;;;;;2.24;68.74;101203.39;493866;106;922951;-68
2023/01/17 01:50:36;;;;;;;8.74;7.93;;;;;;;2.24;68.75;101202.55;491268;107;922466;-68
2023/01/17 01:51:42;;;;;;;10.17;9.16;;;;;;;2.23;68.79;101209.77;491255;107;922489;-68
2023/01/17 01:52:49;;;;;;;9.67;8.87;;;;;;;2.23;68.70;101206.22;492912;107;923288;-68
2023/01/17 01:53:55;;;;;;;10.44;9.44;;;;;;;2.22;68.53;101210.75;492652;105;922830;-68
2023/01/17 01:55:01;;;;;;;9.94;9.02;;;;;;;2.21;68.69;101205.50;492295;107;922959;-68
2023/01/17 01:56:08;;;;;;;9.50;8.62;;;;;;;2.21;68.55;101203.66;492514;105;922543;-68
2023/01/17 01:57:15;;;;;;;10.30;9.34;;;;;;;2.19;68.55;101197.60;489184;105;922560;-69
2023/01/17 01:58:24;;;;;;;9.56;8.72;;;;;;;2.20;68.57;101195.77;495548;105;923202;-68
2023/01/17 01:59:29;;;;;;;9.89;8.64;;;;;;;2.18;68.54;101198.59;497678;105;922922;-68
2023/01/17 02:00:35;;;;;;;9.33;8.57;;;;;;;2.17;68.50;101199.58;501053;105;922418;-68
2023/01/17 02:01:38;;;;;;;9.88;8.98;;;;;;;2.16;68.46;101197.88;492285;107;922381;-68
2023/01/17 02:02:43;;;;;;;8.76;8.02;;;;;;;2.16;68.59;101199.72;491195;106;922454;-68
2023/01/17 02:03:48;;;;;;;9.78;8.91;;;;;;;2.15;68.56;101204.24;495534;107;922522;-68
2023/01/17 02:04:51;;;;;;;9.91;8.95;;;;;;;2.15;68.38;101198.05;493102;105;922863;-68
2023/01/17 02:05:55;;;;;;;9.68;8.83;;;;;;;2.14;68.44;101201.72;497998;105;922942;-68
2023/01/17 02:07:06;;;;;;;9.79;9.01;;;;;;;2.11;68.46;101197.47;495787;106;922459;-68
2023/01/17 02:08:14;;;;;;;9.56;8.72;;;;;;;2.11;68.44;101189.40;493424;105;923899;-68
2023/01/17 02:09:19;;;;;;;9.72;8.81;;;;;;;2.09;68.33;101189.53;494036;105;922679;-67
2023/01/17 02:10:22;;;;;;;10.05;9.15;;;;;;;2.08;68.31;101195.08;492386;106;922757;-68
2023/01/17 02:11:26;;;;;;;9.98;9.11;;;;;;;2.07;68.41;101185.31;491237;107;922458;-68
2023/01/17 02:12:30;;;;;;;9.55;8.70;;;;;;;2.06;68.52;101184.46;490352;107;922431;-68
2023/01/17 02:13:33;;;;;;;10.06;9.14;;;;;;;2.06;68.44;101179.08;492445;107;922565;-68
2023/01/17 02:14:36;;;;;;;9.89;8.93;;;;;;;2.06;68.43;101184.46;496380;105;930442;-67
2023/01/17 02:16:04;;;;;;;9.15;8.34;;;;;;;2.05;68.53;101188.14;496761;105;923003;-67
2023/01/17 02:17:25;;;;;;;9.72;8.89;;;;;;;2.07;68.55;101185.31;491909;107;922938;-68
2023/01/17 02:18:52;;;;;;;10.06;9.13;;;;;;;2.06;68.66;101189.84;493893;105;922483;-67
2023/01/17 02:20:20;;;;;;;9.14;8.37;;;;;;;2.05;68.63;101188.14;488024;107;922509;-67
2023/01/17 02:21:35;;;;;;;9.52;8.66;;;;;;;2.04;68.68;101193.69;492472;105;922538;-68
2023/01/17 02:23:06;;;;;;;9.76;8.96;;;;;;;2.03;68.78;101194.67;491682;105;922482;-68
2023/01/17 02:24:20;;;;;;;;;;;;;;;2.01;68.84;101189.42;479895;107;922113;-68
2023/01/17 02:25:42;;;;;;;9.25;8.48;;;;;;;2.01;68.85;101188.58;491879;105;922313;-68
2023/01/17 02:27:02;;;;;;;10.63;9.74;;;;;;;1.98;68.89;101183.50;492265;107;922428;-68
2023/01/17 02:28:29;;;;;;;10.19;9.07;;;;;;;1.94;68.81;101185.61;492307;107;922878;-68
2023/01/17 02:30:09;;;;;;;10.48;9.46;;;;;;;1.92;68.82;101178.70;492642;105;922482;-68
2023/01/17 02:31:18;;;;;;;10.23;9.33;;;;;;;1.88;68.91;101179.95;492329;107;922582;-68
2023/01/17 02:32:33;;;;;;;10.39;9.51;;;;;;;1.85;68.91;101185.64;490728;106;922445;-68
2023/01/17 02:33:46;;;;;;;11.01;10.12;;;;;;;1.82;68.81;101185.94;489929;106;922541;-68
2023/01/17 02:35:07;;;;;;;10.70;9.78;;;;;;;1.82;68.99;101184.07;491710;107;922578;-68
2023/01/17 02:36:23;;;;;;;10.43;9.60;;;;;;;1.80;68.90;101183.38;493369;105;922406;-67
2023/01/17 02:37:56;;;;;;;10.17;9.35;;;;;;;1.79;69.04;101189.75;494695;105;922450;-67
2023/01/17 02:39:02;;;;;;;9.72;8.98;;;;;;;1.79;69.08;101191.58;489046;107;922892;-68
2023/01/17 02:40:10;;;;;;;9.94;9.18;;;;;;;1.78;69.16;101184.50;492008;105;922576;-68
2023/01/17 02:41:16;;;;;;;10.85;9.97;;;;;;;1.78;69.22;101185.36;498783;105;922421;-68
2023/01/17 02:42:25;;;;;;;10.77;9.81;;;;;;;1.78;69.29;101174.60;495687;105;922407;-68
2023/01/17 02:43:28;;;;;;;10.93;10.08;;;;;;;1.80;69.30;101177.16;481790;109;922627;-68
2023/01/17 02:44:35;;;;;;;11.31;9.93;;;;;;;1.81;69.30;101168.11;493300;105;922460;-68
2023/01/17 02:45:38;;;;;;;10.32;9.51;;;;;;;1.82;69.43;101176.00;491674;107;922522;-68
2023/01/17 02:46:50;;;;;;;10.86;9.91;;;;;;;1.82;69.40;101176.00;492558;105;922555;-68
2023/01/17 02:47:53;;;;;;;10.82;9.92;;;;;;;1.84;69.37;101178.56;491933;107;922430;-68
2023/01/17 02:48:57;;;;;;;11.76;10.49;;;;;;;1.83;69.18;101177.70;495232;105;922477;-68
2023/01/17 02:50:10;;;;;;;11.28;10.23;;;;;;;1.83;69.11;101175.02;497705;105;922507;-68
2023/01/17 02:51:31;;;;;;;12.37;10.44;;;;;;;1.83;69.21;101171.48;491042;107;922478;-68
2023/01/17 02:52:56;;;;;;;11.56;10.58;;;;;;;1.84;69.29;101175.87;494269;105;922429;-68
2023/01/17 02:54:09;;;;;;;11.62;10.62;;;;;;;1.84;69.39;101173.18;500779;105;922476;-67
2023/01/17 02:55:18;;;;;;;13.26;10.82;;;;;;;1.85;69.29;101175.73;499213;105;922439;-68
2023/01/17 02:56:41;;;;;;;11.62;10.52;;;;;;;1.84;69.24;101174.03;498798;105;922447;-68
2023/01/17 02:58:06;;;;;;;12.96;11.81;;;;;;;1.84;69.36;101167.80;492392;107;922503;-68
2023/01/17 02:59:15;;;;;;;13.08;11.69;;;;;;;1.85;69.27;101177.57;497933;105;922398;-68
2023/01/17 03:00:34;;;;;;;12.84;11.73;;;;;;;1.83;69.07;101166.10;491408;105;922598;-68
2023/01/17 03:01:52;;;;;;;12.29;11.14;;;;;;;1.82;69.05;101173.31;495585;105;922766;-68
2023/01/17 03:03:08;;;;;;;12.10;11.10;;;;;;;1.81;69.11;101168.95;492858;106;922604;-68
2023/01/17 03:04:21;;;;;;;12.96;11.68;;;;;;;1.80;69.00;101174.47;492329;105;922570;-67
2023/01/17 03:05:55;;;;;;;11.91;10.94;;;;;;;1.79;68.96;101164.70;487900;107;922492;-68
2023/01/17 03:07:01;;;;;;;12.62;11.52;;;;;;;1.79;68.93;101170.08;489351;107;922562;-69
2023/01/17 03:08:06;;;;;;;12.22;11.21;;;;;;;1.76;69.03;101168.55;492346;107;922551;-68
2023/01/17 03:09:09;;;;;;;13.61;12.57;;;;;;;1.76;68.95;101170.38;492935;105;922462;-68
2023/01/17 03:10:16;;;;;;;13.00;11.98;;;;;;;1.75;68.93;101169.53;500203;105;930221;-68
2023/01/17 03:11:20;;;;;;;11.73;10.69;;;;;;;1.74;68.83;101175.04;492966;105;922474;-68
2023/01/17 03:12:28;;;;;;;12.58;11.49;;;;;;;1.73;68.84;101165.27;490493;105;922833;-67
2023/01/17 03:13:32;;;;;;;11.96;10.99;;;;;;;1.72;68.77;101168.95;485975;107;922581;-69
2023/01/17 03:14:35;;;;;;;13.32;12.23;;;;;;;1.72;68.86;101168.95;492247;107;922445;-68
2023/01/17 03:15:39;;;;;;;12.90;11.71;;;;;;;1.73;68.89;101176.03;488118;107;922462;-68
2023/01/17 03:16:43;;;;;;;13.81;12.60;;;;;;;1.73;69.01;101174.19;494001;105;922510;-68
2023/01/17 03:17:49;;;;;;;12.66;11.56;;;;;;;1.73;68.98;101168.81;495126;105;923018;-69
2023/01/17 03:18:55;;;;;;;13.11;11.71;;;;;;;1.74;69.11;101172.34;487950;107;922527;-68
2023/01/17 03:19:59;;;;;;;13.00;11.87;;;;;;;1.74;69.11;101162.45;487936;107;922460;-68
2023/01/17 03:21:02;;;;;;;12.72;11.49;;;;;;;1.74;69.00;101165.14;482452;109;922524;-68
2023/01/17 03:22:05;;;;;;;12.98;11.88;;;;;;;1.75;69.00;101163.30;487543;107;922513;-68
2023/01/17 03:23:08;;;;;;;13.03;11.88;;;;;;;1.76;68.98;101155.09;484806;108;922776;-68
2023/01/17 03:24:11;;;;;;;12.29;11.26;;;;;;;1.77;68.89;101167.52;490991;108;922480;-68
2023/01/17 03:25:16;;;;;;;11.83;10.69;;;;;;;1.76;68.89;101165.86;494604;105;922867;-68
2023/01/17 03:26:19;;;;;;;13.06;11.82;;;;;;;1.77;68.89;101162.14;493028;107;922973;-68
2023/01/17 03:27:22;;;;;;;12.86;11.69;;;;;;;1.76;68.78;101175.75;487914;107;930497;-68
2023/01/17 03:28:25;;;;;;;13.00;11.83;;;;;;;1.76;68.95;101171.23;481666;107;922798;-68
2023/01/17 03:29:28;;;;;;;13.87;12.66;;;;;;;1.77;68.85;101166.67;474666;110;922530;-68
2023/01/17 03:30:31;;;;;;;13.69;12.35;;;;;;;1.75;68.83;101169.53;473295;110;922549;-68
2023/01/17 03:31:34;;;;;;;11.56;10.59;;;;;;;1.76;69.01;101171.23;473489;110;922498;-69
2023/01/17 03:32:38;;;;;;;13.13;11.94;;;;;;;1.76;68.89;101167.69;493757;107;922537;-69
2023/01/17 03:33:41;;;;;;;13.59;12.38;;;;;;;1.76;69.03;101170.38;492755;106;923156;-68
2023/01/17 03:34:44;;;;;;;14.33;12.91;;;;;;;1.76;68.91;101165.00;489491;105;922572;-68
2023/01/17 03:35:47;;;;;;;15.74;14.15;;;;;;;1.76;68.98;101162.31;486792;109;922528;-68
2023/01/17 03:36:50;;;;;;;15.19;13.77;;;;;;;1.76;68.87;101159.63;486432;108;922444;-68
2023/01/17 03:37:53;;;;;;;16.59;15.16;;;;;;;1.76;68.87;101151.56;501189;105;922450;-68
2023/01/17 03:38:56;;;;;;;16.01;14.57;;;;;;;1.75;68.82;101157.92;492479;106;922527;-68
2023/01/17 03:39:59;;;;;;;14.83;13.53;;;;;;;1.75;68.76;101157.92;492714;105;922899;-68
2023/01/17 03:41:03;;;;;;;15.61;14.16;;;;;;;1.74;68.83;101161.59;487896;106;923256;-68
2023/01/17 03:42:06;;;;;;;16.14;14.75;;;;;;;1.73;68.75;101160.75;491118;105;922843;-69
2023/01/17 03:43:10;;;;;;;16.33;14.88;;;;;;;1.72;68.66;101164.42;497881;105;922387;-68
2023/01/17 03:44:13;;;;;;;18.57;15.82;;;;;;;1.71;68.69;101157.34;496334;105;922967;-69
2023/01/17 03:45:17;;;;;;;17.93;15.18;;;;;;;1.72;68.71;101155.50;494002;105;922924;-68
2023/01/17 03:46:22;;;;;;;17.04;15.29;;;;;;;1.71;68.73;101154.66;493221;105;922528;-68
2023/01/17 03:47:25;;;;;;;16.66;15.06;;;;;;;1.72;68.79;101164.42;487884;107;922889;-69
2023/01/17 03:48:29;;;;;;;17.04;15.44;;;;;;;1.72;68.79;101164.42;496449;105;922861;-68
2023/01/17 03:49:32;;;;;;;16.26;14.57;;;;;;;1.72;68.68;101166.26;496325;105;922444;-69
2023/01/17 03:50:35;;;;;;;16.49;14.91;;;;;;;1.72;68.69;101163.57;492511;106;922900;-68
2023/01/17 03:51:38;;;;;;;13.58;12.43;;;;;;;1.71;68.72;101165.41;491797;107;922471;-68
2023/01/17 03:52:42;;;;;;;14.29;13.01;;;;;;;1.71;68.73;101161.90;489963;106;922717;-68
2023/01/17 03:53:48;;;;;;;13.74;12.44;;;;;;;1.70;68.88;101154.82;489677;107;922528;-69
2023/01/17 03:54:51;;;;;;;13.48;12.21;;;;;;;1.68;68.79;101163.88;490518;107;922938;-69
2023/01/17 03:55:55;;;;;;;12.17;10.93;;;;;;;1.66;68.85;101159.61;492885;105;922465;-68
2023/01/17 03:56:58;;;;;;;12.78;11.55;;;;;;;1.65;68.88;101155.25;491033;107;922805;-69
2023/01/17 03:58:01;;;;;;;13.04;11.74;;;;;;;1.64;68.95;101150.87;495899;106;922843;-69
2023/01/17 03:59:04;;;;;;;13.01;11.60;;;;;;;1.63;68.99;101154.55;496863;106;922820;-70
2023/01/17 04:00:08;;;;;;;13.74;12.40;;;;;;;1.62;69.13;101150.16;488799;108;922473;-68
2023/01/17 04:01:11;;;;;;;13.35;12.16;;;;;;;1.61;69.18;101153.83;492464;105;922451;-68
2023/01/17 04:02:15;;;;;;;14.01;12.77;;;;;;;1.59;69.13;101147.77;492883;105;922793;-69
2023/01/17 04:03:18;;;;;;;14.31;12.98;;;;;;;1.59;69.17;101153.14;490339;105;922899;-70
2023/01/17 04:04:21;;;;;;;13.74;12.49;;;;;;;1.57;69.19;101149.73;490588;105;930349;-68
2023/01/17 04:05:25;;;;;;;15.11;13.61;;;;;;;1.56;69.32;101154.26;489063;107;922980;-69
2023/01/17 04:06:28;;;;;;;13.27;12.06;;;;;;;1.56;69.21;101148.03;492367;105;922506;-68
2023/01/17 04:07:31;;;;;;;14.72;13.32;;;;;;;1.54;69.29;101153.58;492636;106;922398;-68
2023/01/17 04:08:34;;;;;;;16.64;12.63;;;;;;;1.53;69.45;101157.25;484988;107;922539;-69
2023/01/17 04:09:37;;;;;;;14.42;12.94;;;;;;;1.53;69.49;101154.56;466658;111;922444;-68
2023/01/17 04:10:41;;;;;;;14.67;13.41;;;;;;;1.53;69.51;101151.87;478344;110;922444;-69
2023/01/17 04:11:44;;;;;;;14.37;12.94;;;;;;;1.53;69.44;101164.45;471792;111;922575;-68
2023/01/17 04:12:47;;;;;;;14.91;13.31;;;;;;;1.52;69.49;101162.75;482658;110;922965;-68
2023/01/17 04:13:50;;;;;;;15.64;13.53;;;;;;;1.51;69.65;101171.80;482529;109;923011;-68
2023/01/17 04:14:53;;;;;;;14.31;12.92;;;;;;;1.51;69.67;101163.73;480509;110;922859;-68
2023/01/17 04:15:56;;;;;;;15.34;13.76;;;;;;;1.50;69.59;101175.47;478843;110;922473;-69
2023/01/17 04:17:00;;;;;;;15.28;13.31;;;;;;;1.46;69.76;101172.23;480819;108;922625;-69
2023/01/17 04:18:04;;;;;;;15.58;13.91;;;;;;;1.46;69.69;101176.75;481920;109;923182;-68
2023/01/17 04:19:10;;;;;;;15.98;14.02;;;;;;;1.44;69.88;101178.72;494417;105;922440;-69
2023/01/17 04:20:20;;;;;;;14.67;13.17;;;;;;;1.43;69.97;101182.42;493250;105;922936;-67
2023/01/17 04:21:23;;;;;;;14.19;12.98;;;;;;;1.41;69.91;101182.56;485656;105;923428;-68
2023/01/17 04:22:26;;;;;;;18.09;14.56;;;;;;;1.41;70.00;101179.87;492199;105;922960;-68
2023/01/17 04:23:29;;;;;;;16.47;14.72;;;;;;;1.40;70.03;101182.69;486543;107;922567;-69
2023/01/17 04:24:32;;;;;;;19.62;14.12;;;;;;;1.40;70.17;101186.23;491451;106;922437;-69
2023/01/17 04:25:36;;;;;;;15.43;13.91;;;;;;;1.40;70.11;101185.38;496673;106;922931;-69
2023/01/17 04:26:39;;;;;;;17.42;14.65;;;;;;;1.40;70.31;101178.17;493180;105;922450;-68
2023/01/17 04:27:42;;;;;;;15.38;13.44;;;;;;;1.40;70.35;101177.31;492628;105;922993;-68
2023/01/17 04:28:45;;;;;;;19.01;14.65;;;;;;;1.41;70.26;101189.77;490655;107;922580;-69
2023/01/17 04:29:48;;;;;;;16.89;14.87;;;;;;;1.41;70.31;101182.56;492668;107;922932;-69
2023/01/17 04:30:51;;;;;;;17.66;14.13;;;;;;;1.41;70.31;101182.56;473292;109;922595;-68
2023/01/17 04:31:54;;;;;;;16.26;14.11;;;;;;;1.42;70.35;101189.63;478974;110;922511;-69
2023/01/17 04:32:57;;;;;;;16.17;14.62;;;;;;;1.43;70.48;101180.59;482301;109;922664;-68
2023/01/17 04:34:00;;;;;;;18.67;14.97;;;;;;;1.43;70.45;101183.28;492448;107;922413;-69
2023/01/17 04:35:05;;;;;;;19.62;14.65;;;;;;;1.42;70.48;101172.66;492514;107;922503;-68
2023/01/17 04:36:10;;;;;;;16.55;14.89;;;;;;;1.40;70.52;101178.17;492333;107;922604;-69
2023/01/17 04:37:13;;;;;;;20.84;14.34;;;;;;;1.40;70.67;101188.06;489644;107;922514;-69
2023/01/17 04:38:16;;;;;;;19.57;16.25;;;;;;;1.39;70.57;101183.67;495801;106;922450;-69
2023/01/17 04:39:19;;;;;;;17.11;15.00;;;;;;;1.38;70.76;101182.82;494288;106;922594;-69
2023/01/17 04:40:22;;;;;;;21.27;16.15;;;;;;;1.38;70.80;101185.51;495006;105;922862;-68
2023/01/17 04:41:26;;;;;;;17.42;15.46;;;;;;;1.38;70.71;101190.06;494945;105;922511;-68
2023/01/17 04:42:29;;;;;;;17.59;15.84;;;;;;;1.38;70.86;101192.75;499204;105;922502;-69
2023/01/17 04:43:32;;;;;;;23.14;16.37;;;;;;;1.38;70.91;101192.75;492618;105;922941;-68
2023/01/17 04:44:35;;;;;;;18.99;17.01;;;;;;;1.37;71.00;101191.90;493992;105;922768;-70
2023/01/17 04:45:39;;;;;;;19.61;16.07;;;;;;;1.38;71.04;101196.26;492448;107;922709;-68
2023/01/17 04:46:42;;;;;;;21.29;16.65;;;;;;;1.40;71.07;101190.75;493845;105;922552;-68
2023/01/17 04:47:45;;;;;;;21.30;16.31;;;;;;;1.41;70.98;101203.20;492436;107;930577;-69
2023/01/17 04:48:48;;;;;;;18.28;16.26;;;;;;;1.42;71.13;101200.38;490122;107;922483;-69
2023/01/17 04:49:52;;;;;;;22.07;16.68;;;;;;;1.46;71.18;101195.56;490177;107;922577;-69
2023/01/17 04:50:59;;;;;;;24.68;17.43;;;;;;;1.46;71.19;101200.94;492758;107;922240;-69
2023/01/17 04:52:03;;;;;;;21.37;18.46;;;;;;;1.49;71.08;101206.05;492388;107;922460;-70
2023/01/17 04:53:06;;;;;;;19.88;17.89;;;;;;;1.50;71.12;101197.82;500604;105;922845;-73
2023/01/17 04:54:10;;;;;;;29.04;18.60;;;;;;;1.53;71.12;101196.70;494902;105;922754;-69
2023/01/17 04:55:14;;;;;;;22.50;19.39;;;;;;;1.55;71.22;101200.08;486924;107;930369;-70
2023/01/17 04:56:18;;;;;;;25.87;19.72;;;;;;;1.56;71.21;101199.09;495883;105;922612;-72
2023/01/17 04:57:21;;;;;;;23.84;19.06;;;;;;;1.56;71.25;101202.63;492645;107;922458;-71
2023/01/17 04:58:25;;;;;;;29.01;19.76;;;;;;;1.58;71.28;101208.73;489216;107;922310;-69
2023/01/17 04:59:28;;;;;;;26.41;20.14;;;;;;;1.60;71.20;101205.88;496198;107;922584;-69
2023/01/17 05:00:32;;;;;;;27.07;19.58;;;;;;;1.62;71.20;101215.51;493302;107;930416;-70
2023/01/17 05:01:35;;;;;;;26.72;20.71;;;;;;;1.63;71.26;101214.52;492882;105;930065;-69
2023/01/17 05:02:39;;;;;;;26.04;20.93;;;;;;;1.63;71.18;101219.90;482310;108;930466;-70
2023/01/17 05:03:42;;;;;;;26.14;20.41;;;;;;;1.64;71.13;101207.31;482729;107;922753;-67
2023/01/17 05:04:45;;;;;;;24.18;20.55;;;;;;;1.64;71.15;101207.31;492539;107;922550;-68
2023/01/17 05:05:48;;;;;;;22.99;20.56;;;;;;;1.65;71.28;101209.84;490447;107;922602;-69
2023/01/17 05:06:52;;;;;;;29.79;22.40;;;;;;;1.66;71.22;101208.84;496258;105;922468;-69
2023/01/17 05:07:56;;;;;;;28.39;21.93;;;;;;;1.68;71.25;101211.41;495804;105;922584;-69
2023/01/17 05:09:01;;;;;;;28.54;21.03;;;;;;;1.69;71.27;101202.36;493369;105;922453;-68
2023/01/17 05:10:05;;;;;;;25.62;21.67;;;;;;;1.72;71.36;101206.58;486929;107;922474;-68
2023/01/17 05:11:08;;;;;;;25.98;22.02;;;;;;;1.73;71.27;101205.59;498814;105;923013;-68
2023/01/17 05:12:11;;;;;;;26.81;20.64;;;;;;;1.75;71.25;101209.00;495921;105;922476;-69
2023/01/17 05:13:15;;;;;;;23.06;19.98;;;;;;;1.76;71.23;101208.87;490196;105;922526;-68
2023/01/17 05:14:18;;;;;;;24.74;21.93;;;;;;;1.76;71.08;101206.17;492189;105;922443;-67
2023/01/17 05:15:22;;;;;;;30.46;23.44;;;;;;;1.78;71.09;101200.63;491138;105;922505;-68
2023/01/17 05:16:25;;;;;;;29.64;22.22;;;;;;;1.80;71.16;101207.58;497631;105;922476;-68
2023/01/17 05:17:28;;;;;;;29.64;22.22;;;;;;;1.81;71.05;101201.22;493914;107;922596;-69
2023/01/17 05:18:31;;;;;;;32.40;21.86;;;;;;;1.83;71.06;101196.53;485112;107;930385;-68
2023/01/17 05:19:35;;;;;;;26.60;22.22;;;;;;;1.86;71.15;101198.09;493036;107;922813;-70
2023/01/17 05:20:38;;;;;;;30.57;22.16;;;;;;;1.88;71.22;101196.09;492770;106;922778;-69
2023/01/17 05:21:41;;;;;;;27.74;22.69;;;;;;;1.90;71.16;101194.12;492573;106;922996;-69
2023/01/17 05:22:46;;;;;;;29.92;23.12;;;;;;;1.93;71.21;101188.47;498888;105;922440;-69
2023/01/17 05:23:49;;;;;;;28.87;22.31;;;;;;;1.95;71.26;101190.00;492361;105;922564;-70
2023/01/17 05:24:52;;;;;;;26.62;21.19;;;;;;;1.97;71.27;101190.72;492676;107;922510;-70
2023/01/17 05:25:55;;;;;;;24.89;21.02;;;;;;;2.00;71.30;101200.32;494023;105;930356;-69
2023/01/17 05:27:02;;;;;;;25.20;20.81;;;;;;;2.01;71.32;101191.27;492522;106;922380;-69
2023/01/17 05:28:04;;;;;;;26.24;21.17;;;;;;;2.03;71.33;101202.73;501298;105;922459;-68
2023/01/17 05:29:08;;;;;;;33.32;22.34;;;;;;;2.04;71.23;101197.19;501617;105;923011;-68
2023/01/17 05:30:12;;;;;;;34.27;22.88;;;;;;;2.04;71.15;101194.50;501190;105;923143;-68
2023/01/17 05:31:15;;;;;;;30.01;21.96;;;;;;;2.04;71.12;101199.87;497922;105;922605;-67
2023/01/17 05:32:19;;;;;;;26.92;21.09;;;;;;;2.05;71.09;101204.27;492633;106;930289;-68
2023/01/17 05:33:22;;;;;;;28.51;22.41;;;;;;;2.06;71.12;101194.37;492318;106;922455;-67
2023/01/17 05:34:25;;;;;;;24.64;21.01;;;;;;;2.06;71.14;101200.59;491190;106;922927;-68
2023/01/17 05:35:31;;;;;;;27.64;21.14;;;;;;;2.08;71.10;101208.53;492622;107;922479;-68
2023/01/17 05:36:34;;;;;;;29.22;21.86;;;;;;;2.08;71.10;101203.15;492347;107;922539;-68
2023/01/17 05:37:37;;;;;;;23.73;20.18;;;;;;;2.08;71.14;101201.31;488808;107;922420;-68
2023/01/17 05:38:40;;;;;;;27.99;22.13;;;;;;;2.09;71.11;101202.16;498171;105;922731;-68
2023/01/17 05:39:43;;;;;;;27.56;21.53;;;;;;;2.07;71.11;101206.83;502610;105;922720;-68
2023/01/17 05:40:46;;;;;;;24.96;22.32;;;;;;;2.07;71.03;101206.83;501384;105;922500;-68
2023/01/17 05:41:49;;;;;;;23.95;21.44;;;;;;;2.07;71.17;101204.98;501935;105;922447;-68
2023/01/17 05:42:55;;;;;;;25.92;21.48;;;;;;;2.08;71.11;101205.84;490670;105;922550;-68
2023/01/17 05:43:58;;;;;;;29.39;21.71;;;;;;;2.09;71.28;101208.36;489985;107;922493;-66
2023/01/17 05:45:01;;;;;;;29.13;21.86;;;;;;;2.12;71.24;101209.92;491058;105;922366;-67
2023/01/17 05:46:05;;;;;;;28.37;21.13;;;;;;;2.15;71.35;101219.56;486865;107;923058;-68
2023/01/17 05:47:08;;;;;;;26.56;20.20;;;;;;;2.17;71.28;101215.72;494136;105;922735;-67
2023/01/17 05:48:11;;;;;;;24.85;20.39;;;;;;;2.17;71.17;101213.03;491791;107;922779;-67
2023/01/17 05:49:14;;;;;;;31.30;21.14;;;;;;;2.19;71.13;101218.27;492909;105;922877;-68
2023/01/17 05:50:22;;;;;;;27.30;19.92;;;;;;;2.19;71.23;101210.20;492577;107;922502;-67
2023/01/17 05:51:25;;;;;;;28.49;20.93;;;;;;;2.19;71.28;101213.75;492517;106;922911;-68
2023/01/17 05:52:28;;;;;;;22.69;20.22;;;;;;;2.20;71.33;101218.14;492312;107;922486;-68
2023/01/17 05:53:31;;;;;;;25.49;20.92;;;;;;;2.23;71.24;101216.98;492060;106;922574;-68
2023/01/17 05:54:35;;;;;;;23.31;20.93;;;;;;;2.24;71.29;101211.46;496819;106;922475;-69
2023/01/17 05:55:39;;;;;;;23.24;20.94;;;;;;;2.26;71.24;101205.95;490397;105;923003;-67
2023/01/17 05:56:42;;;;;;;22.93;19.22;;;;;;;2.27;71.26;101215.69;492451;107;922504;-68
2023/01/17 05:57:46;;;;;;;26.06;21.41;;;;;;;2.29;71.19;101217.25;492900;106;922543;-68
2023/01/17 05:58:49;;;;;;;26.04;20.09;;;;;;;2.30;71.19;101216.27;493073;106;922914;-68
2023/01/17 05:59:52;;;;;;;22.29;19.99;;;;;;;2.32;71.16;101210.72;492572;107;922395;-67
2023/01/17 06:00:55;;;;;;;22.12;19.72;;;;;;;2.33;71.23;101207.03;494044;105;922419;-68
2023/01/17 06:01:58;;;;;;;27.33;19.94;;;;;;;2.34;71.13;101211.42;492600;107;922885;-67
2023/01/17 06:03:01;;;;;;;21.81;17.81;;;;;;;2.34;70.95;101214.12;500988;105;922851;-68
2023/01/17 06:04:04;;;;;;;22.04;19.67;;;;;;;2.33;70.96;101209.73;500003;105;922814;-67
2023/01/17 06:05:08;;;;;;;23.98;18.58;;;;;;;2.32;70.98;101205.33;492537;107;922425;-68
2023/01/17 06:06:12;;;;;;;20.12;18.12;;;;;;;2.33;71.00;101204.34;492314;107;922880;-68
2023/01/17 06:07:16;;;;;;;26.16;18.06;;;;;;;2.33;71.14;101205.20;487815;107;922397;-67
2023/01/17 06:08:19;;;;;;;28.72;19.25;;;;;;;2.35;71.14;101205.06;492964;107;922441;-68
2023/01/17 06:09:22;;;;;;;20.74;18.73;;;;;;;2.36;71.08;101204.06;492540;106;930180;-68
2023/01/17 06:10:27;;;;;;;24.81;18.54;;;;;;;2.40;71.21;101200.08;492480;107;922587;-69
2023/01/17 06:11:30;;;;;;;21.55;18.78;;;;;;;2.40;71.21;101200.08;492320;107;930502;-68
2023/01/17 06:12:33;;;;;;;20.36;18.48;;;;;;;2.42;71.27;101201.64;492450;107;922479;-68
2023/01/17 06:13:37;;;;;;;22.81;20.25;;;;;;;2.43;71.12;101207.84;492437;107;922481;-68
2023/01/17 06:14:40;;;;;;;28.60;21.68;;;;;;;2.45;71.12;101198.64;492583;107;922446;-68
2023/01/17 06:15:44;;;;;;;26.11;21.43;;;;;;;2.47;71.20;101201.20;490239;107;922513;-67
2023/01/17 06:16:47;;;;;;;24.89;21.11;;;;;;;2.50;71.22;101200.89;490363;107;930496;-68
2023/01/17 06:17:50;;;;;;;25.65;20.10;;;;;;;2.52;71.23;101198.91;493955;105;922928;-67
2023/01/17 06:18:53;;;;;;;26.68;21.11;;;;;;;2.55;71.24;101201.29;489996;107;922931;-67
2023/01/17 06:19:56;;;;;;;26.91;20.69;;;;;;;2.57;71.25;101195.77;492516;107;922507;-67
2023/01/17 06:21:00;;;;;;;29.98;21.69;;;;;;;2.58;71.32;101198.31;489075;107;922607;-68
2023/01/17 06:22:04;;;;;;;23.98;21.37;;;;;;;2.60;71.34;101190.07;492057;105;922494;-67